sensor_id;sensor_type;location;lat;lon;timestamp;P1;durP1;ratioP1;P2;durP2;ratioP2
57319;SDS011;43158;51.026;18.190;2022-09-30T00:00:36;2.20;;;2.10;;
57319;SDS011;43158;51.026;18.190;2022-09-30T00:03:03;0.40;;;0.40;;
57319;SDS011;43158;51.026;18.190;2022-09-30T00:05:30;2.10;;;2.00;;
57319;SDS011;43158;51.026;18.190;2022-09-30T00:07:56;0.40;;;0.40;;
57319;SDS011;43158;51.026;18.190;2022-09-30T00:10:23;0.20;;;0.20;;
57319;SDS011;43158;51.026;18.190;2022-09-30T00:12:50;1.00;;;1.00;;
57319;SDS011;43158;51.026;18.190;2022-09-30T00:15:18;0.50;;;0.50;;
57319;SDS011;43158;51.026;18.190;2022-09-30T00:17:45;6.90;;;6.50;;
57319;SDS011;43158;51.026;18.190;2022-09-30T00:20:12;0.80;;;0.80;;
57319;SDS011;43158;51.026;18.190;2022-09-30T00:22:39;1.10;;;1.10;;
57319;SDS011;43158;51.026;18.190;2022-09-30T00:25:07;2.70;;;2.60;;
57319;SDS011;43158;51.026;18.190;2022-09-30T00:27:41;6.30;;;3.20;;
57319;SDS011;43158;51.026;18.190;2022-09-30T00:30:08;1.60;;;1.50;;
57319;SDS011;43158;51.026;18.190;2022-09-30T00:32:35;4.80;;;2.90;;
57319;SDS011;43158;51.026;18.190;2022-09-30T00:35:01;3.30;;;3.10;;
57319;SDS011;43158;51.026;18.190;2022-09-30T00:37:27;3.20;;;2.90;;
57319;SDS011;43158;51.026;18.190;2022-09-30T00:39:53;2.60;;;2.20;;
57319;SDS011;43158;51.026;18.190;2022-09-30T00:42:19;3.60;;;3.30;;
57319;SDS011;43158;51.026;18.190;2022-09-30T00:44:51;2.10;;;2.00;;
57319;SDS011;43158;51.026;18.190;2022-09-30T00:50:31;2.30;;;1.50;;
57319;SDS011;43158;51.026;18.190;2022-09-30T00:55:49;2.30;;;2.20;;
57319;SDS011;43158;51.026;18.190;2022-09-30T00:58:26;4.40;;;1.70;;
57319;SDS011;43158;51.026;18.190;2022-09-30T01:00:58;2.90;;;2.60;;
57319;SDS011;43158;51.026;18.190;2022-09-30T01:03:30;1.20;;;1.00;;
57319;SDS011;43158;51.026;18.190;2022-09-30T01:05:57;1.90;;;1.80;;
57319;SDS011;43158;51.026;18.190;2022-09-30T01:08:24;2.50;;;1.40;;
57319;SDS011;43158;51.026;18.190;2022-09-30T01:10:52;4.80;;;4.50;;
57319;SDS011;43158;51.026;18.190;2022-09-30T01:13:19;1.50;;;1.50;;
57319;SDS011;43158;51.026;18.190;2022-09-30T01:18:26;2.10;;;1.40;;
57319;SDS011;43158;51.026;18.190;2022-09-30T01:37:14;2.10;;;1.80;;
57319;SDS011;43158;51.026;18.190;2022-09-30T01:39:52;4.30;;;3.20;;
57319;SDS011;43158;51.026;18.190;2022-09-30T01:42:30;2.30;;;1.30;;
57319;SDS011;43158;51.026;18.190;2022-09-30T01:50:17;2.80;;;2.50;;
57319;SDS011;43158;51.026;18.190;2022-09-30T01:52:52;1.90;;;1.80;;
57319;SDS011;43158;51.026;18.190;2022-09-30T01:58:11;4.00;;;3.70;;
57319;SDS011;43158;51.026;18.190;2022-09-30T02:00:42;1.80;;;1.70;;
57319;SDS011;43158;51.026;18.190;2022-09-30T02:03:14;0.90;;;0.90;;
57319;SDS011;43158;51.026;18.190;2022-09-30T02:06:04;0.30;;;0.30;;
57319;SDS011;43158;51.026;18.190;2022-09-30T02:11:17;0.30;;;0.30;;
57319;SDS011;43158;51.026;18.190;2022-09-30T02:14:00;0.30;;;0.30;;
57319;SDS011;43158;51.026;18.190;2022-09-30T02:16:37;5.20;;;4.70;;
57319;SDS011;43158;51.026;18.190;2022-09-30T02:21:59;4.00;;;3.40;;
57319;SDS011;43158;51.026;18.190;2022-09-30T02:24:28;2.70;;;2.50;;
57319;SDS011;43158;51.026;18.190;2022-09-30T02:26:56;4.30;;;3.00;;
57319;SDS011;43158;51.026;18.190;2022-09-30T02:29:29;0.70;;;0.70;;
57319;SDS011;43158;51.026;18.190;2022-09-30T02:32:01;3.30;;;3.00;;
57319;SDS011;43158;51.026;18.190;2022-09-30T02:34:31;1.20;;;1.10;;
57319;SDS011;43158;51.026;18.190;2022-09-30T02:39:52;2.30;;;2.20;;
57319;SDS011;43158;51.026;18.190;2022-09-30T02:42:28;1.30;;;1.30;;
57319;SDS011;43158;51.026;18.190;2022-09-30T02:44:56;8.10;;;2.70;;
57319;SDS011;43158;51.026;18.190;2022-09-30T02:47:42;0.30;;;0.30;;
57319;SDS011;43158;51.026;18.190;2022-09-30T02:55:50;21.20;;;18.50;;
57319;SDS011;43158;51.026;18.190;2022-09-30T02:58:20;23.60;;;17.90;;
57319;SDS011;43158;51.026;18.190;2022-09-30T03:00:50;19.60;;;17.60;;
57319;SDS011;43158;51.026;18.190;2022-09-30T03:03:19;19.70;;;17.90;;
57319;SDS011;43158;51.026;18.190;2022-09-30T03:08:14;21.10;;;18.80;;
57319;SDS011;43158;51.026;18.190;2022-09-30T03:10:40;21.30;;;19.20;;
57319;SDS011;43158;51.026;18.190;2022-09-30T03:18:42;20.80;;;18.70;;
57319;SDS011;43158;51.026;18.190;2022-09-30T03:21:18;20.30;;;18.40;;
57319;SDS011;43158;51.026;18.190;2022-09-30T03:31:39;23.30;;;20.90;;
57319;SDS011;43158;51.026;18.190;2022-09-30T03:34:18;22.00;;;19.70;;
57319;SDS011;43158;51.026;18.190;2022-09-30T03:36:56;22.00;;;19.80;;
57319;SDS011;43158;51.026;18.190;2022-09-30T03:42:02;21.50;;;19.30;;
57319;SDS011;43158;51.026;18.190;2022-09-30T03:44:42;23.00;;;20.40;;
57319;SDS011;43158;51.026;18.190;2022-09-30T03:47:16;22.80;;;20.40;;
57319;SDS011;43158;51.026;18.190;2022-09-30T03:49:44;41.20;;;21.40;;
57319;SDS011;43158;51.026;18.190;2022-09-30T03:52:15;25.00;;;19.90;;
57319;SDS011;43158;51.026;18.190;2022-09-30T03:54:53;23.80;;;20.70;;
57319;SDS011;43158;51.026;18.190;2022-09-30T03:57:21;24.10;;;21.70;;
57319;SDS011;43158;51.026;18.190;2022-09-30T03:59:47;23.10;;;20.40;;
57319;SDS011;43158;51.026;18.190;2022-09-30T04:02:13;23.80;;;21.30;;
57319;SDS011;43158;51.026;18.190;2022-09-30T04:04:39;23.20;;;20.60;;
57319;SDS011;43158;51.026;18.190;2022-09-30T04:07:08;27.00;;;20.70;;
57319;SDS011;43158;51.026;18.190;2022-09-30T04:09:35;24.40;;;21.80;;
57319;SDS011;43158;51.026;18.190;2022-09-30T04:12:04;22.20;;;20.10;;
57319;SDS011;43158;51.026;18.190;2022-09-30T04:14:30;22.70;;;20.60;;
57319;SDS011;43158;51.026;18.190;2022-09-30T04:16:57;23.10;;;20.80;;
57319;SDS011;43158;51.026;18.190;2022-09-30T04:19:23;24.40;;;21.90;;
57319;SDS011;43158;51.026;18.190;2022-09-30T04:21:53;22.70;;;20.60;;
57319;SDS011;43158;51.026;18.190;2022-09-30T04:24:21;26.10;;;23.40;;
57319;SDS011;43158;51.026;18.190;2022-09-30T04:26:49;25.00;;;22.40;;
57319;SDS011;43158;51.026;18.190;2022-09-30T04:29:16;26.00;;;22.40;;
57319;SDS011;43158;51.026;18.190;2022-09-30T04:31:43;26.50;;;23.80;;
57319;SDS011;43158;51.026;18.190;2022-09-30T04:34:10;24.40;;;22.10;;
57319;SDS011;43158;51.026;18.190;2022-09-30T04:36:36;27.00;;;24.20;;
57319;SDS011;43158;51.026;18.190;2022-09-30T04:39:03;28.80;;;25.60;;
57319;SDS011;43158;51.026;18.190;2022-09-30T04:41:31;29.60;;;26.70;;
57319;SDS011;43158;51.026;18.190;2022-09-30T04:44:00;27.60;;;23.80;;
57319;SDS011;43158;51.026;18.190;2022-09-30T04:46:32;26.00;;;23.30;;
57319;SDS011;43158;51.026;18.190;2022-09-30T04:49:02;29.10;;;24.50;;
57319;SDS011;43158;51.026;18.190;2022-09-30T04:51:30;25.80;;;23.00;;
57319;SDS011;43158;51.026;18.190;2022-09-30T04:53:57;26.90;;;23.70;;
57319;SDS011;43158;51.026;18.190;2022-09-30T04:56:25;27.40;;;24.50;;
57319;SDS011;43158;51.026;18.190;2022-09-30T04:58:52;26.30;;;23.50;;
57319;SDS011;43158;51.026;18.190;2022-09-30T05:01:19;26.20;;;23.10;;
57319;SDS011;43158;51.026;18.190;2022-09-30T05:03:50;25.40;;;22.80;;
57319;SDS011;43158;51.026;18.190;2022-09-30T05:06:17;25.20;;;22.60;;
57319;SDS011;43158;51.026;18.190;2022-09-30T05:08:44;25.80;;;23.10;;
57319;SDS011;43158;51.026;18.190;2022-09-30T05:11:12;24.80;;;22.40;;
57319;SDS011;43158;51.026;18.190;2022-09-30T05:13:42;25.20;;;22.60;;
57319;SDS011;43158;51.026;18.190;2022-09-30T05:16:10;25.10;;;22.30;;
57319;SDS011;43158;51.026;18.190;2022-09-30T05:18:37;25.30;;;22.80;;
57319;SDS011;43158;51.026;18.190;2022-09-30T05:21:07;28.80;;;26.10;;
57319;SDS011;43158;51.026;18.190;2022-09-30T05:23:34;28.50;;;25.60;;
57319;SDS011;43158;51.026;18.190;2022-09-30T05:26:00;27.40;;;24.60;;
57319;SDS011;43158;51.026;18.190;2022-09-30T05:28:27;26.70;;;24.20;;
57319;SDS011;43158;51.026;18.190;2022-09-30T05:30:56;25.90;;;23.30;;
57319;SDS011;43158;51.026;18.190;2022-09-30T05:33:26;25.30;;;22.70;;
57319;SDS011;43158;51.026;18.190;2022-09-30T05:35:59;27.80;;;21.30;;
57319;SDS011;43158;51.026;18.190;2022-09-30T05:38:28;24.10;;;21.60;;
57319;SDS011;43158;51.026;18.190;2022-09-30T05:40:54;25.10;;;22.60;;
57319;SDS011;43158;51.026;18.190;2022-09-30T05:43:20;24.60;;;22.30;;
57319;SDS011;43158;51.026;18.190;2022-09-30T05:45:53;26.70;;;24.20;;
57319;SDS011;43158;51.026;18.190;2022-09-30T05:48:21;23.80;;;21.50;;
57319;SDS011;43158;51.026;18.190;2022-09-30T05:50:48;22.20;;;20.00;;
57319;SDS011;43158;51.026;18.190;2022-09-30T05:53:19;23.30;;;20.80;;
57319;SDS011;43158;51.026;18.190;2022-09-30T05:55:45;24.00;;;21.80;;
57319;SDS011;43158;51.026;18.190;2022-09-30T05:58:13;27.70;;;22.50;;
57319;SDS011;43158;51.026;18.190;2022-09-30T06:00:41;26.40;;;23.60;;
57319;SDS011;43158;51.026;18.190;2022-09-30T06:03:08;26.20;;;23.40;;
57319;SDS011;43158;51.026;18.190;2022-09-30T06:05:36;27.70;;;23.90;;
57319;SDS011;43158;51.026;18.190;2022-09-30T06:08:03;26.00;;;22.90;;
57319;SDS011;43158;51.026;18.190;2022-09-30T06:10:32;27.80;;;24.60;;
57319;SDS011;43158;51.026;18.190;2022-09-30T06:13:03;27.10;;;23.60;;
57319;SDS011;43158;51.026;18.190;2022-09-30T06:15:30;30.90;;;24.80;;
57319;SDS011;43158;51.026;18.190;2022-09-30T06:17:58;26.60;;;23.10;;
57319;SDS011;43158;51.026;18.190;2022-09-30T06:20:24;24.30;;;21.40;;
57319;SDS011;43158;51.026;18.190;2022-09-30T06:22:52;21.10;;;19.10;;
57319;SDS011;43158;51.026;18.190;2022-09-30T06:25:19;22.30;;;19.80;;
57319;SDS011;43158;51.026;18.190;2022-09-30T06:27:47;20.70;;;18.30;;
57319;SDS011;43158;51.026;18.190;2022-09-30T06:30:15;21.20;;;18.80;;
57319;SDS011;43158;51.026;18.190;2022-09-30T06:32:42;21.50;;;19.40;;
57319;SDS011;43158;51.026;18.190;2022-09-30T06:35:08;20.70;;;18.70;;
57319;SDS011;43158;51.026;18.190;2022-09-30T06:37:36;22.50;;;20.30;;
57319;SDS011;43158;51.026;18.190;2022-09-30T06:40:18;23.40;;;21.20;;
57319;SDS011;43158;51.026;18.190;2022-09-30T06:42:48;21.20;;;19.10;;
57319;SDS011;43158;51.026;18.190;2022-09-30T06:45:15;20.90;;;18.80;;
57319;SDS011;43158;51.026;18.190;2022-09-30T06:47:47;20.50;;;18.50;;
57319;SDS011;43158;51.026;18.190;2022-09-30T06:52:43;19.30;;;17.40;;
57319;SDS011;43158;51.026;18.190;2022-09-30T06:55:10;18.50;;;16.80;;
57319;SDS011;43158;51.026;18.190;2022-09-30T06:57:44;20.60;;;18.50;;
57319;SDS011;43158;51.026;18.190;2022-09-30T07:00:12;19.10;;;17.30;;
57319;SDS011;43158;51.026;18.190;2022-09-30T07:02:48;16.90;;;15.10;;
57319;SDS011;43158;51.026;18.190;2022-09-30T07:05:15;16.70;;;15.00;;
57319;SDS011;43158;51.026;18.190;2022-09-30T07:07:43;17.70;;;15.80;;
57319;SDS011;43158;51.026;18.190;2022-09-30T07:10:10;17.50;;;15.70;;
57319;SDS011;43158;51.026;18.190;2022-09-30T07:12:36;17.80;;;16.10;;
57319;SDS011;43158;51.026;18.190;2022-09-30T07:15:03;17.90;;;14.60;;
57319;SDS011;43158;51.026;18.190;2022-09-30T07:17:30;21.80;;;15.80;;
57319;SDS011;43158;51.026;18.190;2022-09-30T07:19:57;16.20;;;14.40;;
57319;SDS011;43158;51.026;18.190;2022-09-30T07:22:24;15.40;;;14.00;;
57319;SDS011;43158;51.026;18.190;2022-09-30T07:24:57;16.40;;;14.70;;
57319;SDS011;43158;51.026;18.190;2022-09-30T07:27:26;18.20;;;16.40;;
57319;SDS011;43158;51.026;18.190;2022-09-30T07:29:53;17.40;;;15.70;;
57319;SDS011;43158;51.026;18.190;2022-09-30T07:32:20;18.20;;;16.50;;
57319;SDS011;43158;51.026;18.190;2022-09-30T07:34:46;17.50;;;15.70;;
57319;SDS011;43158;51.026;18.190;2022-09-30T07:37:13;17.50;;;15.80;;
57319;SDS011;43158;51.026;18.190;2022-09-30T07:39:41;18.40;;;16.80;;
57319;SDS011;43158;51.026;18.190;2022-09-30T07:42:10;17.90;;;16.30;;
57319;SDS011;43158;51.026;18.190;2022-09-30T07:44:38;18.80;;;17.00;;
57319;SDS011;43158;51.026;18.190;2022-09-30T07:47:09;19.30;;;17.00;;
57319;SDS011;43158;51.026;18.190;2022-09-30T07:49:37;18.40;;;16.20;;
57319;SDS011;43158;51.026;18.190;2022-09-30T07:52:04;19.00;;;17.20;;
57319;SDS011;43158;51.026;18.190;2022-09-30T07:54:31;16.70;;;15.00;;
57319;SDS011;43158;51.026;18.190;2022-09-30T07:56:58;17.50;;;15.50;;
57319;SDS011;43158;51.026;18.190;2022-09-30T07:59:26;16.90;;;15.20;;
57319;SDS011;43158;51.026;18.190;2022-09-30T08:01:53;15.80;;;14.40;;
57319;SDS011;43158;51.026;18.190;2022-09-30T08:04:20;16.40;;;14.90;;
57319;SDS011;43158;51.026;18.190;2022-09-30T08:06:48;17.50;;;15.80;;
57319;SDS011;43158;51.026;18.190;2022-09-30T08:09:17;16.50;;;14.60;;
57319;SDS011;43158;51.026;18.190;2022-09-30T08:14:12;17.10;;;15.30;;
57319;SDS011;43158;51.026;18.190;2022-09-30T08:16:39;16.40;;;14.70;;
57319;SDS011;43158;51.026;18.190;2022-09-30T08:19:06;17.50;;;16.00;;
57319;SDS011;43158;51.026;18.190;2022-09-30T08:21:38;18.60;;;17.00;;
57319;SDS011;43158;51.026;18.190;2022-09-30T08:24:04;18.10;;;16.40;;
57319;SDS011;43158;51.026;18.190;2022-09-30T08:26:30;18.00;;;16.50;;
57319;SDS011;43158;51.026;18.190;2022-09-30T08:28:56;16.60;;;15.10;;
57319;SDS011;43158;51.026;18.190;2022-09-30T08:31:22;18.90;;;17.10;;
57319;SDS011;43158;51.026;18.190;2022-09-30T08:33:49;17.60;;;15.90;;
57319;SDS011;43158;51.026;18.190;2022-09-30T08:36:19;17.20;;;15.60;;
57319;SDS011;43158;51.026;18.190;2022-09-30T08:38:47;17.50;;;16.10;;
57319;SDS011;43158;51.026;18.190;2022-09-30T08:41:16;16.70;;;15.30;;
57319;SDS011;43158;51.026;18.190;2022-09-30T08:49:57;18.30;;;16.70;;
57319;SDS011;43158;51.026;18.190;2022-09-30T08:52:46;17.40;;;16.00;;
57319;SDS011;43158;51.026;18.190;2022-09-30T08:55:23;17.20;;;15.70;;
57319;SDS011;43158;51.026;18.190;2022-09-30T08:57:51;18.90;;;17.00;;
57319;SDS011;43158;51.026;18.190;2022-09-30T09:00:18;17.00;;;15.40;;
57319;SDS011;43158;51.026;18.190;2022-09-30T09:02:56;16.70;;;15.10;;
57319;SDS011;43158;51.026;18.190;2022-09-30T09:05:37;15.20;;;13.90;;
57319;SDS011;43158;51.026;18.190;2022-09-30T09:08:30;16.30;;;14.70;;
57319;SDS011;43158;51.026;18.190;2022-09-30T09:24:29;34.60;;;22.40;;
57319;SDS011;43158;51.026;18.190;2022-09-30T09:27:14;17.50;;;14.30;;
57319;SDS011;43158;51.026;18.190;2022-09-30T09:29:51;17.80;;;13.70;;
57319;SDS011;43158;51.026;18.190;2022-09-30T09:32:35;20.60;;;15.60;;
57319;SDS011;43158;51.026;18.190;2022-09-30T09:35:15;21.10;;;15.80;;
57319;SDS011;43158;51.026;18.190;2022-09-30T09:38:02;15.30;;;13.80;;
57319;SDS011;43158;51.026;18.190;2022-09-30T09:40:56;15.40;;;13.40;;
57319;SDS011;43158;51.026;18.190;2022-09-30T09:43:40;14.60;;;13.10;;
57319;SDS011;43158;51.026;18.190;2022-09-30T09:46:28;13.40;;;12.00;;
57319;SDS011;43158;51.026;18.190;2022-09-30T09:54:33;13.00;;;11.70;;
57319;SDS011;43158;51.026;18.190;2022-09-30T09:57:07;13.70;;;12.30;;
57319;SDS011;43158;51.026;18.190;2022-09-30T09:59:59;19.90;;;12.10;;
57319;SDS011;43158;51.026;18.190;2022-09-30T10:03:15;13.60;;;11.10;;
57319;SDS011;43158;51.026;18.190;2022-09-30T10:05:45;10.30;;;9.20;;
57319;SDS011;43158;51.026;18.190;2022-09-30T10:08:28;14.30;;;10.60;;
57319;SDS011;43158;51.026;18.190;2022-09-30T10:10:59;14.60;;;12.00;;
57319;SDS011;43158;51.026;18.190;2022-09-30T10:16:03;17.10;;;13.20;;
57319;SDS011;43158;51.026;18.190;2022-09-30T10:18:31;14.00;;;10.80;;
57319;SDS011;43158;51.026;18.190;2022-09-30T10:21:04;12.70;;;11.40;;
57319;SDS011;43158;51.026;18.190;2022-09-30T10:23:36;12.30;;;11.00;;
57319;SDS011;43158;51.026;18.190;2022-09-30T10:31:30;11.30;;;10.30;;
57319;SDS011;43158;51.026;18.190;2022-09-30T10:34:01;11.00;;;10.00;;
57319;SDS011;43158;51.026;18.190;2022-09-30T10:36:36;11.60;;;10.50;;
57319;SDS011;43158;51.026;18.190;2022-09-30T10:39:05;12.80;;;10.20;;
57319;SDS011;43158;51.026;18.190;2022-09-30T10:41:34;10.50;;;9.50;;
57319;SDS011;43158;51.026;18.190;2022-09-30T10:44:06;10.00;;;9.00;;
57319;SDS011;43158;51.026;18.190;2022-09-30T10:46:38;9.20;;;8.30;;
57319;SDS011;43158;51.026;18.190;2022-09-30T10:49:09;9.00;;;8.20;;
57319;SDS011;43158;51.026;18.190;2022-09-30T10:51:43;8.50;;;7.90;;
57319;SDS011;43158;51.026;18.190;2022-09-30T10:54:17;10.10;;;9.10;;
57319;SDS011;43158;51.026;18.190;2022-09-30T10:57:09;10.30;;;9.00;;
57319;SDS011;43158;51.026;18.190;2022-09-30T10:59:40;9.70;;;7.90;;
57319;SDS011;43158;51.026;18.190;2022-09-30T11:02:19;9.40;;;8.50;;
57319;SDS011;43158;51.026;18.190;2022-09-30T11:07:47;10.00;;;8.90;;
57319;SDS011;43158;51.026;18.190;2022-09-30T11:15:55;9.80;;;8.80;;
57319;SDS011;43158;51.026;18.190;2022-09-30T11:18:44;9.70;;;8.60;;
57319;SDS011;43158;51.026;18.190;2022-09-30T11:21:17;7.90;;;6.80;;
57319;SDS011;43158;51.026;18.190;2022-09-30T11:23:46;7.80;;;6.90;;
57319;SDS011;43158;51.026;18.190;2022-09-30T11:26:23;9.20;;;8.40;;
57319;SDS011;43158;51.026;18.190;2022-09-30T11:29:14;8.80;;;7.90;;
57319;SDS011;43158;51.026;18.190;2022-09-30T11:31:47;7.80;;;6.50;;
57319;SDS011;43158;51.026;18.190;2022-09-30T11:37:07;7.20;;;6.50;;
57319;SDS011;43158;51.026;18.190;2022-09-30T11:39:53;7.00;;;6.40;;
57319;SDS011;43158;51.026;18.190;2022-09-30T11:45:20;7.80;;;5.50;;
57319;SDS011;43158;51.026;18.190;2022-09-30T11:53:46;6.60;;;6.00;;
57319;SDS011;43158;51.026;18.190;2022-09-30T11:56:37;7.00;;;6.30;;
57319;SDS011;43158;51.026;18.190;2022-09-30T11:59:20;8.20;;;6.80;;
57319;SDS011;43158;51.026;18.190;2022-09-30T12:01:52;8.10;;;7.30;;
57319;SDS011;43158;51.026;18.190;2022-09-30T12:04:22;7.90;;;7.10;;
57319;SDS011;43158;51.026;18.190;2022-09-30T12:06:57;8.60;;;7.40;;
57319;SDS011;43158;51.026;18.190;2022-09-30T12:09:30;7.60;;;6.80;;
57319;SDS011;43158;51.026;18.190;2022-09-30T12:12:01;7.50;;;6.70;;
57319;SDS011;43158;51.026;18.190;2022-09-30T12:14:35;8.50;;;7.20;;
57319;SDS011;43158;51.026;18.190;2022-09-30T12:17:26;7.60;;;6.80;;
57319;SDS011;43158;51.026;18.190;2022-09-30T12:19:58;8.70;;;7.80;;
57319;SDS011;43158;51.026;18.190;2022-09-30T12:22:40;7.60;;;6.90;;
57319;SDS011;43158;51.026;18.190;2022-09-30T12:25:18;8.20;;;7.40;;
57319;SDS011;43158;51.026;18.190;2022-09-30T12:33:51;6.80;;;6.20;;
57319;SDS011;43158;51.026;18.190;2022-09-30T12:36:42;10.80;;;6.00;;
57319;SDS011;43158;51.026;18.190;2022-09-30T12:39:26;7.50;;;6.10;;
57319;SDS011;43158;51.026;18.190;2022-09-30T12:47:39;8.60;;;6.80;;
57319;SDS011;43158;51.026;18.190;2022-09-30T12:50:15;7.80;;;7.10;;
57319;SDS011;43158;51.026;18.190;2022-09-30T12:52:44;7.70;;;7.00;;
57319;SDS011;43158;51.026;18.190;2022-09-30T12:55:19;8.90;;;7.40;;
57319;SDS011;43158;51.026;18.190;2022-09-30T12:57:59;9.30;;;8.40;;
57319;SDS011;43158;51.026;18.190;2022-09-30T13:00:28;7.60;;;7.00;;
57319;SDS011;43158;51.026;18.190;2022-09-30T13:03:06;9.40;;;7.20;;
57319;SDS011;43158;51.026;18.190;2022-09-30T13:08:21;6.50;;;5.90;;
57319;SDS011;43158;51.026;18.190;2022-09-30T13:10:57;8.90;;;8.00;;
57319;SDS011;43158;51.026;18.190;2022-09-30T13:13:26;8.50;;;7.20;;
57319;SDS011;43158;51.026;18.190;2022-09-30T13:15:58;9.20;;;7.70;;
57319;SDS011;43158;51.026;18.190;2022-09-30T13:23:36;11.40;;;9.80;;
57319;SDS011;43158;51.026;18.190;2022-09-30T13:29:25;9.70;;;6.90;;
57319;SDS011;43158;51.026;18.190;2022-09-30T13:34:21;6.90;;;6.20;;
57319;SDS011;43158;51.026;18.190;2022-09-30T13:37:02;7.20;;;6.50;;
57319;SDS011;43158;51.026;18.190;2022-09-30T13:42:19;7.00;;;6.30;;
57319;SDS011;43158;51.026;18.190;2022-09-30T13:47:34;7.00;;;6.40;;
57319;SDS011;43158;51.026;18.190;2022-09-30T13:50:15;8.10;;;7.30;;
57319;SDS011;43158;51.026;18.190;2022-09-30T13:53:31;8.10;;;7.40;;
57319;SDS011;43158;51.026;18.190;2022-09-30T13:55:59;9.60;;;8.40;;
57319;SDS011;43158;51.026;18.190;2022-09-30T14:09:30;9.80;;;7.80;;
57319;SDS011;43158;51.026;18.190;2022-09-30T14:12:30;7.70;;;7.00;;
57319;SDS011;43158;51.026;18.190;2022-09-30T14:15:10;11.90;;;7.70;;
57319;SDS011;43158;51.026;18.190;2022-09-30T14:30:16;9.30;;;8.40;;
57319;SDS011;43158;51.026;18.190;2022-09-30T14:32:49;9.40;;;8.30;;
57319;SDS011;43158;51.026;18.190;2022-09-30T14:35:19;9.10;;;8.20;;
57319;SDS011;43158;51.026;18.190;2022-09-30T14:37:58;8.80;;;7.90;;
57319;SDS011;43158;51.026;18.190;2022-09-30T14:40:27;9.90;;;8.20;;
57319;SDS011;43158;51.026;18.190;2022-09-30T14:42:57;9.90;;;7.70;;
57319;SDS011;43158;51.026;18.190;2022-09-30T14:45:28;8.90;;;7.90;;
57319;SDS011;43158;51.026;18.190;2022-09-30T14:48:09;8.60;;;7.60;;
57319;SDS011;43158;51.026;18.190;2022-09-30T14:50:42;8.30;;;7.30;;
57319;SDS011;43158;51.026;18.190;2022-09-30T14:53:37;7.70;;;6.80;;
57319;SDS011;43158;51.026;18.190;2022-09-30T14:56:18;6.40;;;5.80;;
57319;SDS011;43158;51.026;18.190;2022-09-30T14:58:52;6.90;;;6.10;;
57319;SDS011;43158;51.026;18.190;2022-09-30T15:01:22;8.30;;;7.50;;
57319;SDS011;43158;51.026;18.190;2022-09-30T15:03:59;7.40;;;6.70;;
57319;SDS011;43158;51.026;18.190;2022-09-30T15:06:38;7.40;;;6.70;;
57319;SDS011;43158;51.026;18.190;2022-09-30T15:09:31;10.90;;;8.20;;
57319;SDS011;43158;51.026;18.190;2022-09-30T15:12:14;9.60;;;8.60;;
57319;SDS011;43158;51.026;18.190;2022-09-30T15:17:52;10.70;;;9.70;;
57319;SDS011;43158;51.026;18.190;2022-09-30T15:22:56;10.10;;;9.10;;
57319;SDS011;43158;51.026;18.190;2022-09-30T15:25:24;10.30;;;9.30;;
57319;SDS011;43158;51.026;18.190;2022-09-30T15:27:51;10.30;;;9.20;;
57319;SDS011;43158;51.026;18.190;2022-09-30T15:32:55;8.50;;;7.70;;
57319;SDS011;43158;51.026;18.190;2022-09-30T15:35:22;9.70;;;8.40;;
57319;SDS011;43158;51.026;18.190;2022-09-30T15:37:50;8.10;;;7.30;;
57319;SDS011;43158;51.026;18.190;2022-09-30T15:40:23;9.60;;;8.50;;
57319;SDS011;43158;51.026;18.190;2022-09-30T15:43:15;10.00;;;9.10;;
57319;SDS011;43158;51.026;18.190;2022-09-30T15:46:11;8.10;;;7.30;;
57319;SDS011;43158;51.026;18.190;2022-09-30T15:49:05;8.50;;;7.60;;
57319;SDS011;43158;51.026;18.190;2022-09-30T15:51:54;8.50;;;7.30;;
57319;SDS011;43158;51.026;18.190;2022-09-30T15:54:29;9.20;;;8.40;;
57319;SDS011;43158;51.026;18.190;2022-09-30T15:57:01;12.80;;;10.70;;
57319;SDS011;43158;51.026;18.190;2022-09-30T15:59:59;13.00;;;11.70;;
57319;SDS011;43158;51.026;18.190;2022-09-30T16:02:29;11.90;;;10.60;;
57319;SDS011;43158;51.026;18.190;2022-09-30T16:04:57;13.20;;;10.90;;
57319;SDS011;43158;51.026;18.190;2022-09-30T16:07:28;11.60;;;10.50;;
57319;SDS011;43158;51.026;18.190;2022-09-30T16:09:57;12.10;;;10.90;;
57319;SDS011;43158;51.026;18.190;2022-09-30T16:12:26;13.90;;;12.10;;
57319;SDS011;43158;51.026;18.190;2022-09-30T16:17:34;13.80;;;12.50;;
57319;SDS011;43158;51.026;18.190;2022-09-30T16:25:41;13.60;;;12.30;;
57319;SDS011;43158;51.026;18.190;2022-09-30T16:28:11;13.20;;;12.00;;
57319;SDS011;43158;51.026;18.190;2022-09-30T16:30:46;13.40;;;12.00;;
57319;SDS011;43158;51.026;18.190;2022-09-30T16:33:14;12.70;;;11.50;;
57319;SDS011;43158;51.026;18.190;2022-09-30T16:35:42;12.90;;;11.50;;
57319;SDS011;43158;51.026;18.190;2022-09-30T16:38:14;13.50;;;12.20;;
57319;SDS011;43158;51.026;18.190;2022-09-30T16:40:45;14.00;;;12.60;;
57319;SDS011;43158;51.026;18.190;2022-09-30T16:43:12;20.10;;;13.50;;
57319;SDS011;43158;51.026;18.190;2022-09-30T16:45:40;13.60;;;12.30;;
57319;SDS011;43158;51.026;18.190;2022-09-30T16:48:16;14.30;;;12.70;;
57319;SDS011;43158;51.026;18.190;2022-09-30T16:50:56;14.10;;;12.60;;
57319;SDS011;43158;51.026;18.190;2022-09-30T16:53:30;14.20;;;12.80;;
57319;SDS011;43158;51.026;18.190;2022-09-30T16:55:58;14.10;;;11.40;;
57319;SDS011;43158;51.026;18.190;2022-09-30T16:58:26;15.50;;;13.80;;
57319;SDS011;43158;51.026;18.190;2022-09-30T17:01:03;14.60;;;12.90;;
57319;SDS011;43158;51.026;18.190;2022-09-30T17:03:30;14.40;;;13.00;;
57319;SDS011;43158;51.026;18.190;2022-09-30T17:05:59;14.80;;;13.30;;
57319;SDS011;43158;51.026;18.190;2022-09-30T17:08:25;14.10;;;12.70;;
57319;SDS011;43158;51.026;18.190;2022-09-30T17:10:51;13.60;;;12.30;;
57319;SDS011;43158;51.026;18.190;2022-09-30T17:13:17;11.80;;;10.80;;
57319;SDS011;43158;51.026;18.190;2022-09-30T17:15:48;13.70;;;12.40;;
57319;SDS011;43158;51.026;18.190;2022-09-30T17:18:16;13.40;;;12.10;;
57319;SDS011;43158;51.026;18.190;2022-09-30T17:20:44;15.50;;;12.80;;
57319;SDS011;43158;51.026;18.190;2022-09-30T17:23:18;13.40;;;12.20;;
57319;SDS011;43158;51.026;18.190;2022-09-30T17:25:46;15.40;;;14.00;;
57319;SDS011;43158;51.026;18.190;2022-09-30T17:28:13;16.80;;;14.70;;
57319;SDS011;43158;51.026;18.190;2022-09-30T17:30:42;14.80;;;13.50;;
57319;SDS011;43158;51.026;18.190;2022-09-30T17:33:12;15.00;;;13.40;;
57319;SDS011;43158;51.026;18.190;2022-09-30T17:35:40;13.00;;;11.80;;
57319;SDS011;43158;51.026;18.190;2022-09-30T17:38:11;12.50;;;11.30;;
57319;SDS011;43158;51.026;18.190;2022-09-30T17:40:39;11.90;;;10.90;;
57319;SDS011;43158;51.026;18.190;2022-09-30T17:43:24;10.20;;;9.30;;
57319;SDS011;43158;51.026;18.190;2022-09-30T17:45:51;10.10;;;8.90;;
57319;SDS011;43158;51.026;18.190;2022-09-30T17:48:20;10.80;;;9.70;;
57319;SDS011;43158;51.026;18.190;2022-09-30T17:50:47;11.40;;;10.40;;
57319;SDS011;43158;51.026;18.190;2022-09-30T17:53:14;11.80;;;10.80;;
57319;SDS011;43158;51.026;18.190;2022-09-30T17:55:45;12.80;;;11.60;;
57319;SDS011;43158;51.026;18.190;2022-09-30T17:58:15;14.00;;;12.60;;
57319;SDS011;43158;51.026;18.190;2022-09-30T18:00:47;13.90;;;12.60;;